PGT1861 LCEN-LTBJ
Flight info
| Callsign | PGT1861 |
|---|---|
| Flight time | 1h 11m |
| Altitude | 36000 |
| Route | GIRNE DCT DOREN UW83 AYT UT489 KAVAK UT283 OKESA |
| Aircraft | A20N/M-SDE2E3FGHIRWXY/LB1 |
Departure
| Time | 2026-05-07 06:50 |
|---|---|
| Airport | Ercan International Airport (LCEN) |
Arrival
| Time | 2026-05-07 08:02 |
|---|---|
| Airport | Adnan Menderes International Airport (LTBJ) |
| Time | Latitude | Longitude | Altitude | Speed | Heading |
|---|---|---|---|---|---|
| 2026-05-07 06:27 | 35.14914 | 33.50507 | 405 ft | 0 kts | 201° |
| 2026-05-07 06:38 | 35.14920 | 33.50509 | 405 ft | 2 kts | 201° |
| 2026-05-07 06:38 | 35.14934 | 33.50516 | 405 ft | 2 kts | 201° |
| 2026-05-07 06:39 | 35.14946 | 33.50521 | 405 ft | 0 kts | 201° |
| 2026-05-07 06:39 | 35.14957 | 33.50526 | 405 ft | 2 kts | 187° |
| 2026-05-07 06:39 | 35.14972 | 33.50525 | 405 ft | 2 kts | 167° |
| 2026-05-07 06:39 | 35.14986 | 33.50518 | 405 ft | 2 kts | 146° |
| 2026-05-07 06:40 | 35.14997 | 33.50506 | 405 ft | 2 kts | 126° |
| 2026-05-07 06:40 | 35.15001 | 33.50497 | 405 ft | 0 kts | 113° |
| 2026-05-07 06:40 | 35.15004 | 33.50489 | 405 ft | 0 kts | 111° |
| 2026-05-07 06:43 | 35.15003 | 33.50491 | 405 ft | 0 kts | 111° |
| 2026-05-07 06:43 | 35.14998 | 33.50507 | 405 ft | 3 kts | 111° |
| 2026-05-07 06:44 | 35.14987 | 33.50541 | 405 ft | 5 kts | 111° |
| 2026-05-07 06:44 | 35.14973 | 33.50591 | 405 ft | 7 kts | 95° |
| 2026-05-07 06:44 | 35.14999 | 33.50640 | 405 ft | 7 kts | 31° |
| 2026-05-07 06:44 | 35.15053 | 33.50665 | 405 ft | 8 kts | 22° |
| 2026-05-07 06:45 | 35.15111 | 33.50704 | 405 ft | 10 kts | 53° |
| 2026-05-07 06:45 | 35.15107 | 33.50796 | 405 ft | 12 kts | 113° |
| 2026-05-07 06:45 | 35.15072 | 33.50898 | 405 ft | 13 kts | 112° |
| 2026-05-07 06:45 | 35.15034 | 33.51011 | 405 ft | 14 kts | 112° |
| 2026-05-07 06:46 | 35.14994 | 33.51133 | 405 ft | 15 kts | 112° |
| 2026-05-07 06:46 | 35.14952 | 33.51262 | 405 ft | 16 kts | 112° |
| 2026-05-07 06:46 | 35.14909 | 33.51397 | 405 ft | 17 kts | 111° |
| 2026-05-07 06:46 | 35.14864 | 33.51539 | 405 ft | 18 kts | 111° |
| 2026-05-07 06:47 | 35.14814 | 33.51685 | 405 ft | 18 kts | 114° |
| 2026-05-07 06:47 | 35.14764 | 33.51833 | 405 ft | 19 kts | 111° |
| 2026-05-07 06:47 | 35.14717 | 33.51985 | 405 ft | 19 kts | 112° |
| 2026-05-07 06:47 | 35.14664 | 33.52137 | 405 ft | 19 kts | 113° |
| 2026-05-07 06:48 | 35.14612 | 33.52295 | 405 ft | 20 kts | 111° |
| 2026-05-07 06:48 | 35.14561 | 33.52455 | 405 ft | 20 kts | 111° |
| 2026-05-07 06:48 | 35.14510 | 33.52615 | 405 ft | 20 kts | 111° |
| 2026-05-07 06:48 | 35.14490 | 33.52728 | 405 ft | 8 kts | 84° |
| 2026-05-07 06:49 | 35.14481 | 33.52798 | 405 ft | 7 kts | 137° |
| 2026-05-07 06:49 | 35.14457 | 33.52765 | 405 ft | 7 kts | 294° |
| 2026-05-07 06:49 | 35.14477 | 33.52714 | 405 ft | 7 kts | 291° |
| 2026-05-07 06:49 | 35.14554 | 33.52481 | 405 ft | 65 kts | 292° |
| 2026-05-07 06:50 | 35.14818 | 33.51675 | 406 ft | 134 kts | 292° |
| 2026-05-07 06:50 | 35.15218 | 33.50454 | 608 ft | 167 kts | 292° |
| 2026-05-07 06:50 | 35.15665 | 33.49134 | 1227 ft | 171 kts | 293° |
| 2026-05-07 06:50 | 35.16114 | 33.47812 | 1983 ft | 171 kts | 295° |
| 2026-05-07 06:51 | 35.16637 | 33.46502 | 2557 ft | 178 kts | 305° |
| 2026-05-07 06:51 | 35.17519 | 33.45379 | 2998 ft | 192 kts | 322° |
| 2026-05-07 06:51 | 35.18542 | 33.44365 | 3357 ft | 213 kts | 322° |
| 2026-05-07 06:51 | 35.19729 | 33.43137 | 3868 ft | 232 kts | 320° |
| 2026-05-07 06:52 | 35.20963 | 33.41768 | 4406 ft | 250 kts | 319° |
| 2026-05-07 06:52 | 35.22267 | 33.40255 | 5033 ft | 265 kts | 318° |
| 2026-05-07 06:52 | 35.23586 | 33.38689 | 5906 ft | 269 kts | 318° |
| 2026-05-07 06:52 | 35.24912 | 33.37101 | 6830 ft | 271 kts | 317° |
| 2026-05-07 06:53 | 35.26257 | 33.35492 | 7756 ft | 273 kts | 317° |
| 2026-05-07 06:53 | 35.27600 | 33.33851 | 8688 ft | 275 kts | 316° |
| 2026-05-07 06:53 | 35.28943 | 33.32191 | 9603 ft | 276 kts | 316° |
| 2026-05-07 06:53 | 35.30276 | 33.30540 | 10465 ft | 278 kts | 316° |
| 2026-05-07 06:54 | 35.31668 | 33.28814 | 11046 ft | 292 kts | 315° |
| 2026-05-07 06:54 | 35.33131 | 33.27000 | 11466 ft | 310 kts | 315° |
| 2026-05-07 06:54 | 35.34668 | 33.25091 | 12131 ft | 319 kts | 315° |
| 2026-05-07 06:54 | 35.36224 | 33.23155 | 12988 ft | 320 kts | 315° |
| 2026-05-07 06:55 | 35.37782 | 33.21213 | 13815 ft | 322 kts | 315° |
| 2026-05-07 06:55 | 35.39357 | 33.19251 | 14618 ft | 324 kts | 315° |
| 2026-05-07 06:55 | 35.40923 | 33.17300 | 15406 ft | 326 kts | 314° |
| 2026-05-07 06:55 | 35.42516 | 33.15312 | 16190 ft | 328 kts | 314° |
| 2026-05-07 06:56 | 35.44128 | 33.13301 | 16929 ft | 331 kts | 314° |
| 2026-05-07 06:56 | 35.45728 | 33.11301 | 17632 ft | 333 kts | 314° |
| 2026-05-07 06:56 | 35.47360 | 33.09263 | 18378 ft | 335 kts | 314° |
| 2026-05-07 06:56 | 35.48983 | 33.07232 | 19071 ft | 338 kts | 314° |
| 2026-05-07 06:57 | 35.50617 | 33.05189 | 19678 ft | 341 kts | 314° |
| 2026-05-07 06:57 | 35.52296 | 33.03086 | 20026 ft | 342 kts | 314° |
| 2026-05-07 06:57 | 35.53971 | 33.00986 | 20504 ft | 347 kts | 314° |
| 2026-05-07 06:57 | 35.55659 | 32.98870 | 21232 ft | 347 kts | 314° |
| 2026-05-07 06:58 | 35.57354 | 32.96742 | 21894 ft | 349 kts | 314° |
| 2026-05-07 06:58 | 35.59051 | 32.94613 | 22499 ft | 351 kts | 314° |
| 2026-05-07 06:58 | 35.60757 | 32.92469 | 23081 ft | 354 kts | 314° |
| 2026-05-07 06:58 | 35.62472 | 32.90315 | 23663 ft | 356 kts | 314° |
| 2026-05-07 06:59 | 35.64203 | 32.88138 | 24238 ft | 359 kts | 314° |
| 2026-05-07 06:59 | 35.65954 | 32.85936 | 24777 ft | 361 kts | 314° |
| 2026-05-07 06:59 | 35.67720 | 32.83711 | 25290 ft | 364 kts | 314° |
| 2026-05-07 06:59 | 35.69486 | 32.81486 | 25776 ft | 367 kts | 314° |
| 2026-05-07 07:00 | 35.71269 | 32.79237 | 26260 ft | 370 kts | 314° |
| 2026-05-07 07:00 | 35.73080 | 32.76953 | 26745 ft | 372 kts | 314° |
| 2026-05-07 07:00 | 35.74873 | 32.74689 | 27185 ft | 375 kts | 314° |
| 2026-05-07 07:00 | 35.76712 | 32.72365 | 27621 ft | 377 kts | 314° |
| 2026-05-07 07:01 | 35.78536 | 32.70059 | 28065 ft | 379 kts | 314° |
| 2026-05-07 07:01 | 35.80375 | 32.67730 | 28483 ft | 382 kts | 314° |
| 2026-05-07 07:01 | 35.82235 | 32.65375 | 28886 ft | 384 kts | 314° |
| 2026-05-07 07:01 | 35.84114 | 32.62994 | 29277 ft | 386 kts | 314° |
| 2026-05-07 07:02 | 35.85970 | 32.60640 | 29658 ft | 388 kts | 314° |
| 2026-05-07 07:02 | 35.87862 | 32.58242 | 30159 ft | 387 kts | 314° |
| 2026-05-07 07:02 | 35.89714 | 32.55888 | 30696 ft | 385 kts | 314° |
| 2026-05-07 07:02 | 35.91568 | 32.53534 | 31198 ft | 383 kts | 314° |
| 2026-05-07 07:03 | 35.93413 | 32.51186 | 31668 ft | 382 kts | 313° |
| 2026-05-07 07:03 | 35.95273 | 32.48817 | 32132 ft | 381 kts | 313° |
| 2026-05-07 07:03 | 35.97105 | 32.46485 | 32584 ft | 379 kts | 313° |
| 2026-05-07 07:03 | 35.98934 | 32.44154 | 32998 ft | 378 kts | 313° |
| 2026-05-07 07:04 | 36.00760 | 32.41824 | 33376 ft | 378 kts | 313° |
| 2026-05-07 07:04 | 36.02565 | 32.39519 | 33756 ft | 377 kts | 313° |
| 2026-05-07 07:04 | 36.04401 | 32.37173 | 34120 ft | 377 kts | 313° |
| 2026-05-07 07:04 | 36.06204 | 32.34868 | 34405 ft | 376 kts | 313° |
| 2026-05-07 07:05 | 36.08040 | 32.32518 | 34654 ft | 377 kts | 313° |
| 2026-05-07 07:05 | 36.09846 | 32.30204 | 34866 ft | 379 kts | 313° |
| 2026-05-07 07:05 | 36.11689 | 32.27843 | 35066 ft | 381 kts | 313° |
| 2026-05-07 07:05 | 36.13526 | 32.25488 | 35274 ft | 383 kts | 313° |
| 2026-05-07 07:06 | 36.15385 | 32.23102 | 35480 ft | 384 kts | 313° |
| 2026-05-07 07:06 | 36.17245 | 32.20713 | 35700 ft | 385 kts | 313° |
| 2026-05-07 07:06 | 36.19090 | 32.18346 | 35899 ft | 386 kts | 313° |
| 2026-05-07 07:06 | 36.20972 | 32.15926 | 36070 ft | 388 kts | 313° |
| 2026-05-07 07:07 | 36.24715 | 32.11106 | 36125 ft | 389 kts | 313° |
| 2026-05-07 07:07 | 36.28457 | 32.06282 | 36125 ft | 389 kts | 313° |
| 2026-05-07 07:08 | 36.32190 | 32.01461 | 36129 ft | 388 kts | 313° |
| 2026-05-07 07:08 | 36.35911 | 31.96649 | 36125 ft | 388 kts | 313° |
| 2026-05-07 07:09 | 36.39637 | 31.91819 | 36125 ft | 388 kts | 313° |
| 2026-05-07 07:09 | 36.43369 | 31.86976 | 36126 ft | 388 kts | 313° |
| 2026-05-07 07:10 | 36.47098 | 31.82127 | 36126 ft | 388 kts | 313° |
| 2026-05-07 07:10 | 36.50807 | 31.77300 | 36128 ft | 389 kts | 313° |
| 2026-05-07 07:11 | 36.54438 | 31.72337 | 36127 ft | 388 kts | 309° |
| 2026-05-07 07:11 | 36.57654 | 31.66943 | 36127 ft | 388 kts | 304° |
| 2026-05-07 07:12 | 36.60384 | 31.61185 | 36122 ft | 389 kts | 298° |
| 2026-05-07 07:12 | 36.62717 | 31.55118 | 36129 ft | 389 kts | 296° |
| 2026-05-07 07:13 | 36.64996 | 31.49006 | 36120 ft | 389 kts | 296° |
| 2026-05-07 07:13 | 36.67273 | 31.42880 | 36124 ft | 389 kts | 296° |
| 2026-05-07 07:14 | 36.69540 | 31.36776 | 36121 ft | 390 kts | 296° |
| 2026-05-07 07:14 | 36.71910 | 31.30687 | 36111 ft | 390 kts | 297° |
| 2026-05-07 07:15 | 36.74328 | 31.24639 | 36111 ft | 391 kts | 297° |
| 2026-05-07 07:15 | 36.76719 | 31.18617 | 36115 ft | 391 kts | 297° |
| 2026-05-07 07:16 | 36.79117 | 31.12551 | 36120 ft | 391 kts | 297° |
| 2026-05-07 07:16 | 36.81513 | 31.06473 | 36113 ft | 392 kts | 297° |
| 2026-05-07 07:17 | 36.83910 | 31.00375 | 36119 ft | 393 kts | 297° |
| 2026-05-07 07:17 | 36.86317 | 30.94238 | 36114 ft | 392 kts | 297° |
| 2026-05-07 07:18 | 36.88712 | 30.88117 | 36113 ft | 392 kts | 297° |
| 2026-05-07 07:18 | 36.91043 | 30.81985 | 36112 ft | 393 kts | 295° |
| 2026-05-07 07:19 | 36.92930 | 30.75575 | 36119 ft | 394 kts | 289° |
| 2026-05-07 07:19 | 36.94427 | 30.68979 | 36128 ft | 394 kts | 288° |
| 2026-05-07 07:20 | 36.95883 | 30.62391 | 36137 ft | 395 kts | 288° |
| 2026-05-07 07:20 | 36.97337 | 30.55796 | 36154 ft | 396 kts | 288° |
| 2026-05-07 07:21 | 36.98788 | 30.49183 | 36171 ft | 396 kts | 288° |
| 2026-05-07 07:21 | 37.00245 | 30.42533 | 36183 ft | 396 kts | 288° |
| 2026-05-07 07:22 | 37.01690 | 30.35911 | 36190 ft | 395 kts | 288° |
| 2026-05-07 07:22 | 37.03137 | 30.29264 | 36206 ft | 395 kts | 287° |
| 2026-05-07 07:23 | 37.04574 | 30.22643 | 36204 ft | 396 kts | 287° |
| 2026-05-07 07:23 | 37.06009 | 30.16007 | 36207 ft | 396 kts | 287° |
| 2026-05-07 07:24 | 37.07433 | 30.09402 | 36209 ft | 396 kts | 287° |
| 2026-05-07 07:24 | 37.08860 | 30.02762 | 36217 ft | 395 kts | 287° |
| 2026-05-07 07:25 | 37.11001 | 29.92760 | 36204 ft | 396 kts | 287° |
| 2026-05-07 07:26 | 37.12430 | 29.86073 | 36204 ft | 396 kts | 287° |
| 2026-05-07 07:26 | 37.13847 | 29.79404 | 36202 ft | 397 kts | 287° |
| 2026-05-07 07:27 | 37.15260 | 29.72731 | 36202 ft | 396 kts | 287° |
| 2026-05-07 07:27 | 37.16663 | 29.66071 | 36201 ft | 396 kts | 287° |
| 2026-05-07 07:28 | 37.18064 | 29.59418 | 36196 ft | 396 kts | 287° |
| 2026-05-07 07:28 | 37.19462 | 29.52715 | 36198 ft | 396 kts | 287° |
| 2026-05-07 07:29 | 37.20840 | 29.46070 | 36194 ft | 396 kts | 287° |
| 2026-05-07 07:29 | 37.22227 | 29.39382 | 36190 ft | 396 kts | 287° |
| 2026-05-07 07:30 | 37.23616 | 29.32695 | 36180 ft | 396 kts | 287° |
| 2026-05-07 07:30 | 37.25007 | 29.25978 | 36175 ft | 396 kts | 287° |
| 2026-05-07 07:31 | 37.26385 | 29.19309 | 36179 ft | 397 kts | 287° |
| 2026-05-07 07:31 | 37.27763 | 29.12608 | 36179 ft | 397 kts | 287° |
| 2026-05-07 07:32 | 37.29141 | 29.05879 | 36177 ft | 398 kts | 287° |
| 2026-05-07 07:32 | 37.30512 | 28.99160 | 36175 ft | 397 kts | 287° |
| 2026-05-07 07:33 | 37.31867 | 28.92483 | 36176 ft | 397 kts | 287° |
| 2026-05-07 07:33 | 37.33221 | 28.85790 | 36178 ft | 396 kts | 287° |
| 2026-05-07 07:34 | 37.34575 | 28.79079 | 36173 ft | 396 kts | 287° |
| 2026-05-07 07:34 | 37.35932 | 28.72353 | 36168 ft | 397 kts | 287° |
| 2026-05-07 07:35 | 37.37328 | 28.65657 | 36168 ft | 396 kts | 287° |
| 2026-05-07 07:35 | 37.38725 | 28.58954 | 36168 ft | 397 kts | 287° |
| 2026-05-07 07:36 | 37.40107 | 28.52277 | 36169 ft | 396 kts | 288° |
| 2026-05-07 07:36 | 37.41484 | 28.45605 | 36170 ft | 396 kts | 288° |
| 2026-05-07 07:37 | 37.42862 | 28.38899 | 36170 ft | 396 kts | 288° |
| 2026-05-07 07:37 | 37.44242 | 28.32158 | 36168 ft | 396 kts | 287° |
| 2026-05-07 07:38 | 37.45599 | 28.25510 | 36167 ft | 396 kts | 287° |
| 2026-05-07 07:38 | 37.46968 | 28.18782 | 35830 ft | 397 kts | 287° |
| 2026-05-07 07:38 | 37.47646 | 28.15442 | 35394 ft | 396 kts | 287° |
| 2026-05-07 07:39 | 37.48328 | 28.12082 | 34819 ft | 398 kts | 287° |
| 2026-05-07 07:39 | 37.49011 | 28.08713 | 34129 ft | 401 kts | 287° |
| 2026-05-07 07:39 | 37.49697 | 28.05317 | 33348 ft | 403 kts | 287° |
| 2026-05-07 07:39 | 37.50384 | 28.01905 | 32680 ft | 403 kts | 287° |
| 2026-05-07 07:40 | 37.51061 | 27.98531 | 32072 ft | 402 kts | 287° |
| 2026-05-07 07:40 | 37.51747 | 27.95110 | 31451 ft | 400 kts | 287° |
| 2026-05-07 07:40 | 37.52425 | 27.91728 | 30811 ft | 399 kts | 287° |
| 2026-05-07 07:40 | 37.53104 | 27.88341 | 30144 ft | 399 kts | 287° |
| 2026-05-07 07:41 | 37.53773 | 27.84998 | 29467 ft | 399 kts | 288° |
| 2026-05-07 07:41 | 37.54456 | 27.81585 | 28874 ft | 397 kts | 287° |
| 2026-05-07 07:41 | 37.55125 | 27.78230 | 28429 ft | 394 kts | 287° |
| 2026-05-07 07:41 | 37.55782 | 27.74926 | 27963 ft | 391 kts | 288° |
| 2026-05-07 07:42 | 37.56442 | 27.71598 | 27491 ft | 388 kts | 288° |
| 2026-05-07 07:42 | 37.57087 | 27.68345 | 27010 ft | 385 kts | 288° |
| 2026-05-07 07:42 | 37.57729 | 27.65101 | 26533 ft | 382 kts | 287° |
| 2026-05-07 07:42 | 37.58368 | 27.61867 | 26048 ft | 379 kts | 287° |
| 2026-05-07 07:43 | 37.58997 | 27.58680 | 25576 ft | 375 kts | 287° |
| 2026-05-07 07:43 | 37.59622 | 27.55515 | 25108 ft | 372 kts | 287° |
| 2026-05-07 07:43 | 37.60249 | 27.52334 | 24632 ft | 369 kts | 287° |
| 2026-05-07 07:43 | 37.60867 | 27.49195 | 24157 ft | 366 kts | 287° |
| 2026-05-07 07:44 | 37.61472 | 27.46113 | 23686 ft | 364 kts | 287° |
| 2026-05-07 07:44 | 37.62088 | 27.43010 | 23213 ft | 361 kts | 289° |
| 2026-05-07 07:44 | 37.63091 | 27.40208 | 22734 ft | 354 kts | 307° |
| 2026-05-07 07:44 | 37.64774 | 27.37962 | 22255 ft | 349 kts | 323° |
| 2026-05-07 07:45 | 37.66879 | 27.36479 | 21792 ft | 347 kts | 335° |
| 2026-05-07 07:45 | 37.69070 | 27.35279 | 21339 ft | 346 kts | 336° |
| 2026-05-07 07:45 | 37.71278 | 27.34073 | 20879 ft | 344 kts | 335° |
| 2026-05-07 07:45 | 37.73460 | 27.32881 | 20416 ft | 342 kts | 335° |
| 2026-05-07 07:46 | 37.75598 | 27.31548 | 19959 ft | 340 kts | 329° |
| 2026-05-07 07:46 | 37.77565 | 27.29908 | 19503 ft | 338 kts | 323° |
| 2026-05-07 07:46 | 37.79349 | 27.28015 | 19040 ft | 337 kts | 319° |
| 2026-05-07 07:46 | 37.81069 | 27.26018 | 18579 ft | 335 kts | 318° |
| 2026-05-07 07:47 | 37.82758 | 27.24034 | 18114 ft | 334 kts | 317° |
| 2026-05-07 07:47 | 37.84449 | 27.22040 | 17654 ft | 332 kts | 318° |
| 2026-05-07 07:47 | 37.86134 | 27.20055 | 17192 ft | 331 kts | 317° |
| 2026-05-07 07:47 | 37.87266 | 27.18721 | 16876 ft | 330 kts | 317° |
| 2026-05-07 07:48 | 37.89479 | 27.16110 | 16258 ft | 328 kts | 317° |
| 2026-05-07 07:48 | 37.91137 | 27.14154 | 15796 ft | 327 kts | 318° |
| 2026-05-07 07:48 | 37.92806 | 27.12183 | 15331 ft | 325 kts | 317° |
| 2026-05-07 07:48 | 37.94442 | 27.10248 | 14876 ft | 324 kts | 318° |
| 2026-05-07 07:49 | 37.96087 | 27.08302 | 14424 ft | 322 kts | 318° |
| 2026-05-07 07:49 | 37.97728 | 27.06361 | 13976 ft | 321 kts | 318° |
| 2026-05-07 07:49 | 37.99347 | 27.04445 | 13518 ft | 319 kts | 318° |
| 2026-05-07 07:49 | 38.00964 | 27.02532 | 13080 ft | 318 kts | 317° |
| 2026-05-07 07:50 | 38.02570 | 27.00630 | 12643 ft | 317 kts | 318° |
| 2026-05-07 07:50 | 38.04287 | 26.98882 | 12189 ft | 315 kts | 328° |
| 2026-05-07 07:50 | 38.06269 | 26.97682 | 11758 ft | 313 kts | 341° |
| 2026-05-07 07:50 | 38.08351 | 26.96964 | 11320 ft | 312 kts | 346° |
| 2026-05-07 07:51 | 38.10473 | 26.96327 | 10892 ft | 311 kts | 346° |
| 2026-05-07 07:51 | 38.12584 | 26.95701 | 10511 ft | 308 kts | 346° |
| 2026-05-07 07:51 | 38.14639 | 26.95087 | 10331 ft | 297 kts | 346° |
| 2026-05-07 07:51 | 38.16643 | 26.94798 | 10166 ft | 286 kts | 7° |
| 2026-05-07 07:52 | 38.18451 | 26.95718 | 10026 ft | 278 kts | 35° |
| 2026-05-07 07:52 | 38.19715 | 26.97545 | 9725 ft | 280 kts | 60° |
| 2026-05-07 07:52 | 38.20309 | 26.99900 | 9371 ft | 281 kts | 75° |
| 2026-05-07 07:52 | 38.20723 | 27.02284 | 9226 ft | 271 kts | 75° |
| 2026-05-07 07:53 | 38.20988 | 27.04606 | 9099 ft | 263 kts | 92° |
| 2026-05-07 07:53 | 38.20354 | 27.06728 | 8954 ft | 260 kts | 127° |
| 2026-05-07 07:53 | 38.18887 | 27.08086 | 8483 ft | 268 kts | 161° |
| 2026-05-07 07:53 | 38.17062 | 27.08606 | 8094 ft | 270 kts | 168° |
| 2026-05-07 07:54 | 38.15230 | 27.09072 | 7836 ft | 265 kts | 167° |
| 2026-05-07 07:54 | 38.13439 | 27.09568 | 7575 ft | 261 kts | 166° |
| 2026-05-07 07:54 | 38.11687 | 27.10078 | 7321 ft | 257 kts | 166° |
| 2026-05-07 07:54 | 38.09967 | 27.10591 | 7064 ft | 254 kts | 165° |
| 2026-05-07 07:55 | 38.08263 | 27.11103 | 6777 ft | 252 kts | 165° |
| 2026-05-07 07:55 | 38.06547 | 27.11627 | 6475 ft | 249 kts | 162° |
| 2026-05-07 07:55 | 38.05043 | 27.12620 | 5987 ft | 243 kts | 129° |
| 2026-05-07 07:55 | 38.04338 | 27.14479 | 5367 ft | 238 kts | 92° |
| 2026-05-07 07:56 | 38.04435 | 27.15868 | 4988 ft | 234 kts | 73° |
| 2026-05-07 07:56 | 38.05033 | 27.18454 | 4395 ft | 230 kts | 74° |
| 2026-05-07 07:56 | 38.05471 | 27.20373 | 4192 ft | 221 kts | 66° |
| 2026-05-07 07:56 | 38.06014 | 27.21430 | 4112 ft | 213 kts | 40° |
| 2026-05-07 07:57 | 38.07836 | 27.22073 | 3848 ft | 208 kts | 350° |
| 2026-05-07 07:57 | 38.09203 | 27.21610 | 3710 ft | 199 kts | 346° |
| 2026-05-07 07:57 | 38.10498 | 27.21159 | 3481 ft | 186 kts | 347° |
| 2026-05-07 07:57 | 38.11701 | 27.20766 | 3329 ft | 170 kts | 348° |
| 2026-05-07 07:58 | 38.12843 | 27.20409 | 3236 ft | 169 kts | 348° |
| 2026-05-07 07:58 | 38.13996 | 27.20057 | 3129 ft | 170 kts | 348° |
| 2026-05-07 07:58 | 38.15140 | 27.19712 | 2912 ft | 170 kts | 348° |
| 2026-05-07 07:58 | 38.16288 | 27.19366 | 2654 ft | 168 kts | 348° |
| 2026-05-07 07:59 | 38.17428 | 27.19025 | 2427 ft | 168 kts | 348° |
| 2026-05-07 07:59 | 38.18187 | 27.18797 | 2277 ft | 168 kts | 348° |
| 2026-05-07 07:59 | 38.19696 | 27.18346 | 1972 ft | 163 kts | 348° |
| 2026-05-07 07:59 | 38.20764 | 27.18024 | 1768 ft | 153 kts | 348° |
| 2026-05-07 08:00 | 38.21776 | 27.17719 | 1575 ft | 144 kts | 348° |
| 2026-05-07 08:00 | 38.22726 | 27.17433 | 1385 ft | 139 kts | 348° |
| 2026-05-07 08:00 | 38.23666 | 27.17150 | 1207 ft | 138 kts | 347° |
| 2026-05-07 08:00 | 38.24287 | 27.16963 | 1090 ft | 137 kts | 347° |
| 2026-05-07 08:01 | 38.25219 | 27.16683 | 896 ft | 137 kts | 347° |
| 2026-05-07 08:01 | 38.26448 | 27.16312 | 647 ft | 136 kts | 347° |
| 2026-05-07 08:01 | 38.27375 | 27.16039 | 502 ft | 136 kts | 347° |
| 2026-05-07 08:01 | 38.28287 | 27.15768 | 405 ft | 127 kts | 347° |
| 2026-05-07 08:02 | 38.28980 | 27.15559 | 413 ft | 77 kts | 346° |
| 2026-05-07 08:02 | 38.29328 | 27.15452 | 411 ft | 25 kts | 347° |
| 2026-05-07 08:02 | 38.29381 | 27.15367 | 409 ft | 12 kts | 253° |
| 2026-05-07 08:02 | 38.29364 | 27.15287 | 406 ft | 15 kts | 254° |
| 2026-05-07 08:03 | 38.29345 | 27.15140 | 406 ft | 10 kts | 295° |
| 2026-05-07 08:03 | 38.29390 | 27.15115 | 406 ft | 11 kts | 349° |
| 2026-05-07 08:03 | 38.29488 | 27.15086 | 406 ft | 4 kts | 335° |
| 2026-05-07 08:03 | 38.29503 | 27.15062 | 406 ft | 5 kts | 285° |
| 2026-05-07 08:04 | 38.29497 | 27.15017 | 406 ft | 2 kts | 252° |
| 2026-05-07 08:04 | 38.29493 | 27.14997 | 406 ft | 0 kts | 256° |